Time;durP1;ratioP1;P1;durP2;ratioP2;P2;SDS_P1;SDS_P2;PMS_P1;PMS_P2;Temp;Humidity;BMP_temperature;BMP_pressure;BME280_temperature;BME280_humidity;BME280_pressure;Samples;Min_cycle;Max_cycle;Signal;HPM_P1;HPM_P2
2023/08/12 00:00:21;;;;;;;4.38;2.20;;;21.00;99.90;;;;;;5023269;28;20065;-77
2023/08/12 00:02:47;;;;;;;5.45;2.50;;;21.00;99.90;;;;;;5026596;28;20045;-77
2023/08/12 00:05:13;;;;;;;5.95;2.17;;;20.90;99.90;;;;;;5022973;28;20111;-77
2023/08/12 00:07:43;;;;;;;4.72;2.20;;;20.90;99.90;;;;;;5022364;28;20069;-78
2023/08/12 00:10:11;;;;;;;5.78;2.42;;;20.90;99.90;;;;;;5025422;28;20048;-78
2023/08/12 00:12:38;;;;;;;9.45;3.03;;;20.80;99.90;;;;;;5025339;28;20103;-77
2023/08/12 00:15:06;;;;;;;5.75;2.40;;;20.70;99.90;;;;;;5024571;28;20052;-78
2023/08/12 00:17:32;;;;;;;6.55;2.40;;;20.70;99.90;;;;;;5026384;28;20387;-78
2023/08/12 00:19:58;;;;;;;7.10;2.25;;;20.70;99.90;;;;;;5020664;28;20500;-78
2023/08/12 00:22:24;;;;;;;6.22;2.55;;;20.70;99.90;;;;;;5022989;28;20045;-77
2023/08/12 00:24:49;;;;;;;6.18;2.40;;;20.60;99.90;;;;;;5020521;28;20419;-78
2023/08/12 00:27:15;;;;;;;6.63;2.83;;;20.60;99.90;;;;;;5065163;28;20051;-78
2023/08/12 00:29:41;;;;;;;7.28;3.92;;;20.60;99.90;;;;;;5065512;28;20044;-78
2023/08/12 00:32:09;;;;;;;7.05;2.72;;;20.60;99.90;;;;;;5041043;28;20051;-78
2023/08/12 00:34:34;;;;;;;7.60;3.28;;;20.60;99.90;;;;;;5069311;28;20085;-78
2023/08/12 00:37:00;;;;;;;5.65;3.03;;;20.50;99.90;;;;;;5059953;28;20033;-78
2023/08/12 00:39:26;;;;;;;6.15;2.85;;;20.50;99.90;;;;;;5049194;28;20044;-77
2023/08/12 00:41:52;;;;;;;5.97;3.03;;;20.50;99.90;;;;;;5041733;28;20033;-77
2023/08/12 00:44:17;;;;;;;8.13;3.05;;;20.50;99.90;;;;;;5066821;28;20556;-78
2023/08/12 00:46:43;;;;;;;8.02;2.97;;;20.50;99.90;;;;;;5043334;28;20147;-77
2023/08/12 00:49:11;;;;;;;7.68;3.38;;;20.50;99.90;;;;;;5050402;28;20043;-77
2023/08/12 00:51:41;;;;;;;6.72;3.00;;;20.40;99.90;;;;;;5059604;28;20549;-77
2023/08/12 00:54:12;;;;;;;8.00;3.42;;;20.40;99.90;;;;;;5052476;28;20040;-78
2023/08/12 00:56:38;;;;;;;7.28;3.38;;;20.40;99.90;;;;;;5068276;28;20032;-78
2023/08/12 00:59:07;;;;;;;8.18;3.60;;;20.40;99.90;;;;;;5050650;28;20093;-78
2023/08/12 01:01:33;;;;;;;8.48;3.15;;;20.40;99.90;;;;;;5047979;28;20044;-78
2023/08/12 01:03:59;;;;;;;10.95;2.92;;;20.40;99.90;;;;;;5068975;28;20045;-78
2023/08/12 01:06:25;;;;;;;6.05;2.55;;;20.30;99.90;;;;;;5060196;28;20048;-78
2023/08/12 01:08:51;;;;;;;7.03;2.90;;;20.30;99.90;;;;;;5069663;28;20079;-78
2023/08/12 01:11:34;;;;;;;7.50;3.00;;;20.30;99.90;;;;;;5069417;28;20067;-78
2023/08/12 01:14:21;;;;;;;6.80;2.42;;;20.30;99.90;;;;;;5079635;28;20036;-77
2023/08/12 01:16:51;;;;;;;5.03;2.85;;;20.30;99.90;;;;;;5069945;28;20548;-77
2023/08/12 01:19:32;;;;;;;8.85;3.38;;;20.30;99.90;;;;;;5039886;28;20052;-78
2023/08/12 01:22:01;;;;;;;6.95;2.65;;;20.20;99.90;;;;;;5081013;28;20482;-77
2023/08/12 01:24:27;;;;;;;9.05;3.33;;;20.20;99.90;;;;;;5053013;28;20055;-78
2023/08/12 01:26:52;;;;;;;8.63;3.13;;;20.20;99.90;;;;;;5054296;28;20064;-78
2023/08/12 01:29:19;;;;;;;8.98;2.85;;;20.20;99.90;;;;;;5048056;28;20083;-77
2023/08/12 01:31:54;;;;;;;5.88;3.17;;;20.20;99.90;;;;;;5064306;28;20068;-78
2023/08/12 01:34:39;;;;;;;5.15;3.00;;;20.20;99.90;;;;;;5070565;28;20546;-78
2023/08/12 01:37:05;;;;;;;;;;;20.20;99.90;;;;;;5064216;28;20040;-78
2023/08/12 01:39:33;;;;;;;7.20;3.17;;;20.10;99.90;;;;;;5035179;28;19991;-78
2023/08/12 01:42:02;;;;;;;7.20;3.45;;;20.10;99.90;;;;;;5062436;28;20033;-78
2023/08/12 01:44:28;;;;;;;7.85;3.80;;;20.10;99.90;;;;;;5042998;28;20588;-78
2023/08/12 01:46:54;;;;;;;6.03;3.80;;;20.10;99.90;;;;;;5046012;28;20037;-78
2023/08/12 01:49:19;;;;;;;9.38;4.30;;;20.10;99.90;;;;;;5069501;28;20051;-78
2023/08/12 01:51:45;;;;;;;7.55;3.60;;;20.00;99.90;;;;;;5064848;28;20028;-78
2023/08/12 01:54:10;;;;;;;6.90;3.80;;;20.00;99.90;;;;;;5052285;28;20044;-78
2023/08/12 01:56:36;;;;;;;7.53;3.60;;;20.00;99.90;;;;;;5053806;28;20036;-78
2023/08/12 01:59:02;;;;;;;7.78;4.20;;;19.90;99.90;;;;;;5062857;28;20063;-77
2023/08/12 02:01:27;;;;;;;9.20;3.90;;;19.90;99.90;;;;;;5065212;28;20076;-78
2023/08/12 02:03:53;;;;;;;8.60;3.38;;;19.90;99.90;;;;;;5067067;28;20082;-77
2023/08/12 02:06:19;;;;;;;7.32;3.90;;;19.90;99.90;;;;;;5065674;28;20491;-78
2023/08/12 02:08:45;;;;;;;8.02;4.15;;;19.90;99.90;;;;;;5049484;28;20090;-77
2023/08/12 02:11:10;;;;;;;7.47;4.15;;;19.90;99.90;;;;;;5044452;28;20037;-78
2023/08/12 02:13:36;;;;;;;8.32;4.05;;;19.90;99.90;;;;;;5050434;28;20037;-78
2023/08/12 02:16:02;;;;;;;7.90;4.10;;;19.90;99.90;;;;;;5068302;28;20110;-77
2023/08/12 02:18:27;;;;;;;7.80;4.60;;;19.80;99.90;;;;;;5050278;28;20040;-77
2023/08/12 02:20:53;;;;;;;9.77;4.55;;;19.80;99.90;;;;;;5051020;28;20040;-78
2023/08/12 02:23:19;;;;;;;11.23;4.90;;;19.80;99.90;;;;;;5052276;28;20124;-78
2023/08/12 02:25:44;;;;;;;10.02;4.63;;;19.70;99.90;;;;;;5050977;28;20052;-78
2023/08/12 02:28:10;;;;;;;8.60;4.40;;;19.70;99.90;;;;;;5056855;28;20396;-77
2023/08/12 02:30:36;;;;;;;11.80;5.10;;;19.70;99.90;;;;;;5066492;28;20040;-77
2023/08/12 02:33:01;;;;;;;9.48;4.55;;;19.70;99.90;;;;;;5062980;28;20044;-78
2023/08/12 02:35:27;;;;;;;7.90;4.35;;;19.70;99.90;;;;;;5061687;28;20108;-77
2023/08/12 02:37:53;;;;;;;9.80;4.35;;;19.60;99.90;;;;;;5051158;28;20501;-78
2023/08/12 02:40:18;;;;;;;8.25;4.90;;;19.60;99.90;;;;;;5065736;28;20402;-77
2023/08/12 02:42:44;;;;;;;9.85;5.13;;;19.60;99.90;;;;;;5051218;28;20445;-78
2023/08/12 02:45:10;;;;;;;10.13;5.32;;;19.60;99.90;;;;;;5062739;28;20044;-78
2023/08/12 02:47:35;;;;;;;10.10;5.30;;;19.60;99.90;;;;;;5054447;28;20074;-77
2023/08/12 02:50:02;;;;;;;12.70;5.38;;;19.60;99.90;;;;;;5067690;28;20036;-78
2023/08/12 02:52:28;;;;;;;11.40;6.55;;;19.60;99.90;;;;;;5050351;28;20055;-78
2023/08/12 02:54:55;;;;;;;10.35;5.63;;;19.60;99.90;;;;;;5051658;28;20032;-77
2023/08/12 02:57:20;;;;;;;7.40;4.00;;;19.50;99.90;;;;;;5033760;28;20060;-78
2023/08/12 02:59:46;;;;;;;12.80;6.55;;;19.50;99.90;;;;;;5050598;28;20040;-78
2023/08/12 03:02:11;;;;;;;7.50;4.80;;;19.50;99.90;;;;;;5048365;28;20394;-78
2023/08/12 03:04:37;;;;;;;12.52;7.03;;;19.50;99.90;;;;;;5066419;28;20037;-78
2023/08/12 03:07:03;;;;;;;14.38;6.57;;;19.50;99.90;;;;;;5059168;28;20059;-78
2023/08/12 03:09:28;;;;;;;14.60;7.75;;;19.50;99.90;;;;;;5049498;28;20044;-77
2023/08/12 03:11:54;;;;;;;12.85;7.53;;;19.50;99.90;;;;;;5067441;28;20072;-78
2023/08/12 03:14:20;;;;;;;9.82;6.43;;;19.50;99.90;;;;;;5047994;28;20036;-77
2023/08/12 03:16:45;;;;;;;11.18;6.13;;;19.40;99.90;;;;;;5048983;28;20597;-77
2023/08/12 03:19:11;;;;;;;12.75;7.35;;;19.40;99.90;;;;;;5060897;28;20044;-77
2023/08/12 03:21:36;;;;;;;10.32;6.75;;;19.40;99.90;;;;;;5048692;28;20551;-77
2023/08/12 03:24:02;;;;;;;11.70;5.97;;;19.40;99.90;;;;;;5048397;28;20076;-77
2023/08/12 03:26:28;;;;;;;13.00;8.30;;;19.40;99.90;;;;;;5048781;28;20053;-77
2023/08/12 03:28:54;;;;;;;12.05;7.72;;;19.30;99.90;;;;;;5062781;28;20072;-77
2023/08/12 03:31:19;;;;;;;15.25;8.77;;;19.30;99.90;;;;;;5057058;28;20072;-78
2023/08/12 03:33:45;;;;;;;15.68;8.00;;;19.30;99.90;;;;;;5049627;28;20037;-78
2023/08/12 03:36:10;;;;;;;13.57;7.60;;;19.30;99.90;;;;;;5064723;28;20037;-77
2023/08/12 03:38:36;;;;;;;13.45;8.70;;;19.30;99.90;;;;;;5034370;28;20482;-77
2023/08/12 03:41:03;;;;;;;16.70;8.23;;;19.30;99.90;;;;;;5033006;28;20061;-77
2023/08/12 03:43:28;;;;;;;15.30;8.60;;;19.30;99.90;;;;;;5063273;28;20032;-77
2023/08/12 03:45:54;;;;;;;16.17;8.25;;;19.30;99.90;;;;;;5034726;28;20048;-77
2023/08/12 03:48:19;;;;;;;10.50;5.47;;;19.30;99.90;;;;;;5049883;28;20431;-77
2023/08/12 03:50:46;;;;;;;9.95;5.93;;;19.20;99.90;;;;;;5046276;28;20054;-77
2023/08/12 03:53:12;;;;;;;12.07;8.15;;;19.20;99.90;;;;;;5050346;28;20536;-77
2023/08/12 03:55:38;;;;;;;14.88;9.05;;;19.30;99.90;;;;;;5048592;28;20037;-77
2023/08/12 03:58:04;;;;;;;14.50;9.32;;;19.30;99.90;;;;;;5064064;28;20044;-77
2023/08/12 04:00:29;;;;;;;13.27;8.02;;;19.30;99.90;;;;;;5048047;28;20078;-77
2023/08/12 04:02:55;;;;;;;15.43;9.32;;;19.30;99.90;;;;;;5042299;28;20082;-77
2023/08/12 04:05:21;;;;;;;18.85;9.15;;;19.30;99.90;;;;;;5060488;28;20045;-77
2023/08/12 04:07:46;;;;;;;14.23;8.38;;;19.30;99.90;;;;;;5050377;28;20063;-77
2023/08/12 04:10:12;;;;;;;12.57;7.35;;;19.30;99.90;;;;;;5047792;28;20048;-77
2023/08/12 04:12:38;;;;;;;14.05;8.35;;;19.40;99.90;;;;;;5032231;28;20102;-77
2023/08/12 04:15:05;;;;;;;17.10;9.25;;;19.40;99.90;;;;;;5065486;28;20514;-77
2023/08/12 04:17:32;;;;;;;13.55;8.93;;;19.40;99.90;;;;;;5041103;28;20036;-77
2023/08/12 04:19:57;;;;;;;20.30;11.80;;;19.40;99.90;;;;;;5061479;28;20056;-77
2023/08/12 04:22:23;;;;;;;17.52;11.18;;;19.40;99.90;;;;;;5050656;28;20067;-78
2023/08/12 04:24:49;;;;;;;15.60;8.63;;;19.40;99.90;;;;;;5045291;28;20390;-78
2023/08/12 04:27:16;;;;;;;14.65;9.65;;;19.40;99.90;;;;;;5044820;28;20039;-78
2023/08/12 04:29:42;;;;;;;16.85;9.85;;;19.40;99.90;;;;;;5047760;28;20040;-78
2023/08/12 04:32:07;;;;;;;15.10;9.73;;;19.40;99.90;;;;;;5042284;28;20045;-78
2023/08/12 04:34:33;;;;;;;17.58;10.88;;;19.40;99.90;;;;;;5065435;28;20040;-77
2023/08/12 04:36:59;;;;;;;15.65;11.25;;;19.30;99.90;;;;;;5045375;28;20379;-78
2023/08/12 04:39:25;;;;;;;16.90;10.90;;;19.30;99.90;;;;;;5047763;28;20041;-77
2023/08/12 04:41:50;;;;;;;18.02;11.48;;;19.30;99.90;;;;;;5042311;28;20044;-78
2023/08/12 04:44:16;;;;;;;16.67;10.70;;;19.30;99.90;;;;;;5042964;28;20043;-78
2023/08/12 04:46:42;;;;;;;15.85;10.02;;;19.30;99.90;;;;;;5060767;28;20486;-78
2023/08/12 04:49:08;;;;;;;17.88;11.05;;;19.30;99.90;;;;;;5061687;28;20518;-77
2023/08/12 04:51:34;;;;;;;19.40;10.43;;;19.30;99.90;;;;;;5066499;28;20119;-78
2023/08/12 04:54:01;;;;;;;14.65;10.20;;;19.30;99.90;;;;;;5045414;28;20743;-78
2023/08/12 04:56:28;;;;;;;18.45;10.77;;;19.30;99.90;;;;;;5044155;28;20395;-77
2023/08/12 04:58:55;;;;;;;15.77;8.40;;;19.40;99.90;;;;;;5042704;28;20041;-78
2023/08/12 05:01:21;;;;;;;15.95;8.82;;;19.40;99.90;;;;;;5058813;28;20072;-78
2023/08/12 05:03:47;;;;;;;16.27;10.75;;;19.40;99.90;;;;;;5066108;28;20064;-77
2023/08/12 05:06:13;;;;;;;16.08;11.82;;;19.40;99.90;;;;;;5048438;28;20044;-78
2023/08/12 05:08:38;;;;;;;15.95;9.82;;;19.40;99.90;;;;;;5047833;28;20059;-78
2023/08/12 05:11:04;;;;;;;17.50;10.77;;;19.40;99.90;;;;;;5065841;28;20040;-78
2023/08/12 05:13:30;;;;;;;17.17;10.50;;;19.30;99.90;;;;;;5056625;28;20028;-77
2023/08/12 05:15:56;;;;;;;20.05;12.43;;;19.40;99.90;;;;;;5067067;28;20086;-77
2023/08/12 05:18:26;;;;;;;17.98;10.43;;;19.40;99.90;;;;;;5061405;28;20037;-77
2023/08/12 05:20:52;;;;;;;20.05;11.93;;;19.40;99.90;;;;;;5058837;28;20082;-77
2023/08/12 05:23:22;;;;;;;17.02;11.32;;;19.40;99.90;;;;;;5049224;28;20044;-78
2023/08/12 05:25:48;;;;;;;18.92;11.70;;;19.50;99.90;;;;;;5037613;28;20115;-77
2023/08/12 05:28:13;;;;;;;15.70;9.45;;;19.60;99.90;;;;;;5045562;28;20072;-77
2023/08/12 05:30:39;;;;;;;19.35;11.25;;;19.60;99.90;;;;;;5046950;28;20056;-77
2023/08/12 05:33:07;;;;;;;19.25;10.80;;;19.60;99.90;;;;;;5057547;28;20033;-77
2023/08/12 05:35:34;;;;;;;20.20;10.98;;;19.60;99.90;;;;;;5038175;28;20045;-77
2023/08/12 05:37:59;;;;;;;20.00;11.50;;;19.60;99.90;;;;;;5049630;28;20037;-77
2023/08/12 05:40:25;;;;;;;15.75;11.15;;;19.70;99.90;;;;;;5071279;28;21029;-78
2023/08/12 05:42:51;;;;;;;20.65;11.90;;;19.70;99.90;;;;;;5068937;28;20040;-78
2023/08/12 05:45:16;;;;;;;17.75;10.50;;;19.80;99.90;;;;;;5052528;28;20052;-78
2023/08/12 05:47:42;;;;;;;21.00;11.45;;;19.80;99.90;;;;;;5053631;28;20072;-78
2023/08/12 05:50:08;;;;;;;16.27;10.88;;;19.80;99.90;;;;;;5069659;28;20119;-78
2023/08/12 05:52:34;;;;;;;21.50;12.80;;;19.80;99.90;;;;;;5065489;28;20082;-78
2023/08/12 05:54:59;;;;;;;17.15;11.60;;;19.80;99.90;;;;;;5047602;28;20479;-78
2023/08/12 05:57:25;;;;;;;18.63;11.35;;;19.90;99.90;;;;;;5065960;28;20032;-78
2023/08/12 05:59:51;;;;;;;17.35;11.65;;;19.90;99.90;;;;;;5044900;28;20039;-78
2023/08/12 06:02:17;;;;;;;14.38;9.65;;;19.90;99.90;;;;;;5038860;28;20040;-78
2023/08/12 06:04:42;;;;;;;15.48;10.65;;;19.90;99.90;;;;;;5061768;28;20055;-78
2023/08/12 06:07:08;;;;;;;17.48;11.32;;;20.00;99.90;;;;;;5049631;28;20059;-78
2023/08/12 06:09:33;;;;;;;13.88;9.15;;;20.00;99.90;;;;;;5046868;28;20115;-78
2023/08/12 06:11:59;;;;;;;17.55;10.48;;;20.00;99.90;;;;;;5047509;28;20370;-78
2023/08/12 06:14:25;;;;;;;19.80;11.57;;;20.10;99.90;;;;;;5046935;28;20456;-78
2023/08/12 06:16:50;;;;;;;14.98;10.25;;;20.10;99.90;;;;;;5050056;28;20032;-78
2023/08/12 06:19:16;;;;;;;16.45;9.60;;;20.20;99.90;;;;;;5047963;28;20102;-77
2023/08/12 06:21:42;;;;;;;13.88;10.52;;;20.20;99.90;;;;;;5051396;28;20398;-78
2023/08/12 06:24:07;;;;;;;19.48;11.38;;;20.30;99.90;;;;;;5048090;28;20165;-78
2023/08/12 06:26:33;;;;;;;17.17;10.70;;;20.30;99.90;;;;;;5047754;28;20063;-78
2023/08/12 06:28:58;;;;;;;18.30;11.05;;;20.40;99.90;;;;;;5063879;28;20436;-78
2023/08/12 06:31:24;;;;;;;17.67;10.50;;;20.40;99.90;;;;;;5050612;28;20514;-78
2023/08/12 06:33:50;;;;;;;14.85;10.82;;;20.40;99.90;;;;;;5051569;28;20052;-78
2023/08/12 06:36:15;;;;;;;18.00;11.05;;;20.40;99.90;;;;;;5046801;28;20045;-78
2023/08/12 06:38:41;;;;;;;18.20;11.98;;;20.40;99.90;;;;;;5065185;28;20367;-78
2023/08/12 06:41:07;;;;;;;17.38;12.10;;;20.40;99.90;;;;;;5060853;28;20368;-78
2023/08/12 06:43:32;;;;;;;22.55;11.65;;;20.30;99.90;;;;;;5066807;28;20353;-79
2023/08/12 06:45:58;;;;;;;22.38;11.45;;;20.40;99.90;;;;;;5065998;28;20044;-79
2023/08/12 06:48:24;;;;;;;16.52;10.90;;;20.40;99.90;;;;;;5045464;28;20044;-78
2023/08/12 06:50:54;;;;;;;16.67;11.70;;;20.40;99.90;;;;;;5043797;28;20048;-81
2023/08/12 06:53:20;;;;;;;19.20;11.63;;;20.40;99.90;;;;;;5032957;28;20036;-81
2023/08/12 06:55:45;;;;;;;19.40;10.88;;;20.50;99.90;;;;;;5047264;28;20085;-81
2023/08/12 06:58:12;;;;;;;16.55;10.07;;;20.50;99.90;;;;;;5057229;28;20032;-82
2023/08/12 07:00:38;;;;;;;23.00;12.20;;;20.50;99.90;;;;;;5045396;28;20044;-81
2023/08/12 07:03:04;;;;;;;16.27;11.27;;;20.50;99.90;;;;;;5048196;28;20044;-81
2023/08/12 07:05:29;;;;;;;19.13;12.25;;;20.50;99.90;;;;;;5068206;28;20040;-81
2023/08/12 07:07:55;;;;;;;18.27;11.80;;;20.60;99.90;;;;;;5068253;28;20380;-81
2023/08/12 07:10:20;;;;;;;19.27;12.00;;;20.60;99.90;;;;;;5067231;28;20120;-82
2023/08/12 07:12:46;;;;;;;21.92;13.50;;;20.60;99.90;;;;;;5062714;28;20110;-81
2023/08/12 07:15:12;;;;;;;18.48;13.48;;;20.60;99.90;;;;;;5050514;28;20291;-81
2023/08/12 07:17:37;;;;;;;21.55;13.07;;;20.60;99.90;;;;;;5041389;28;20052;-82
2023/08/12 07:20:04;;;;;;;23.17;12.88;;;20.60;99.90;;;;;;5042292;28;20095;-81
2023/08/12 07:22:30;;;;;;;21.48;14.00;;;20.60;99.90;;;;;;5036467;28;20049;-81
2023/08/12 07:24:59;;;;;;;25.27;13.43;;;20.60;99.90;;;;;;5048168;28;20048;-81
2023/08/12 07:27:26;;;;;;;21.00;13.63;;;20.60;99.90;;;;;;5068499;28;20048;-81
2023/08/12 07:29:52;;;;;;;21.13;12.27;;;20.60;99.90;;;;;;5064624;28;20053;-82
2023/08/12 07:32:18;;;;;;;23.40;14.27;;;20.60;99.90;;;;;;5067032;28;20394;-81
2023/08/12 07:34:44;;;;;;;26.75;14.93;;;20.70;99.90;;;;;;5044760;28;20040;-81
2023/08/12 07:37:10;;;;;;;19.42;14.10;;;20.60;99.90;;;;;;5046357;28;20101;-81
2023/08/12 07:39:36;;;;;;;17.77;11.93;;;20.70;99.90;;;;;;5024838;28;20120;-81
2023/08/12 07:42:02;;;;;;;22.55;14.25;;;20.60;99.90;;;;;;5060623;28;20040;-81
2023/08/12 07:44:30;;;;;;;24.33;15.23;;;20.70;99.90;;;;;;5035608;28;20036;-81
2023/08/12 07:46:56;;;;;;;24.25;15.20;;;20.70;99.90;;;;;;5047277;28;20036;-80
2023/08/12 07:49:22;;;;;;;25.17;15.20;;;20.70;99.90;;;;;;5049706;28;20049;-81
2023/08/12 07:51:48;;;;;;;25.92;15.65;;;20.70;99.90;;;;;;5039294;28;20980;-81
2023/08/12 07:54:14;;;;;;;25.33;16.05;;;20.70;99.90;;;;;;5061021;28;20072;-81
2023/08/12 07:56:40;;;;;;;27.27;16.88;;;20.70;99.90;;;;;;5067225;28;20319;-81
2023/08/12 07:59:05;;;;;;;24.58;16.65;;;20.80;99.90;;;;;;5064043;28;20542;-81
2023/08/12 08:01:31;;;;;;;25.80;16.67;;;20.80;99.90;;;;;;5047743;28;20402;-81
2023/08/12 08:03:57;;;;;;;24.23;17.10;;;20.80;99.90;;;;;;5047558;28;20060;-81
2023/08/12 08:06:25;;;;;;;27.08;17.88;;;20.80;99.90;;;;;;5061873;28;20037;-81
2023/08/12 08:08:51;;;;;;;24.00;15.82;;;20.90;99.90;;;;;;5038267;28;20416;-82
2023/08/12 08:11:17;;;;;;;25.40;17.65;;;20.80;99.90;;;;;;5041925;28;20116;-81
2023/08/12 08:13:42;;;;;;;24.85;18.10;;;20.80;99.90;;;;;;5044319;28;20058;-81
2023/08/12 08:16:08;;;;;;;26.75;18.00;;;20.90;99.90;;;;;;5065441;28;20994;-82
2023/08/12 08:18:34;;;;;;;23.33;17.55;;;20.90;99.90;;;;;;5039265;28;20032;-80
2023/08/12 08:20:59;;;;;;;26.52;17.48;;;20.90;99.90;;;;;;5057643;28;20048;-81
2023/08/12 08:23:25;;;;;;;23.23;17.17;;;21.00;99.90;;;;;;5043316;28;20074;-80
2023/08/12 08:25:51;;;;;;;24.90;16.00;;;21.00;99.90;;;;;;5047022;28;20131;-81
2023/08/12 08:28:17;;;;;;;26.55;16.70;;;21.10;99.90;;;;;;5049769;28;20125;-82
2023/08/12 08:30:43;;;;;;;25.08;16.60;;;21.10;99.90;;;;;;5041711;28;20433;-82
2023/08/12 08:33:08;;;;;;;24.60;16.48;;;21.10;99.90;;;;;;5046205;28;20052;-81
2023/08/12 08:35:34;;;;;;;26.08;17.05;;;21.10;99.90;;;;;;5049119;28;20307;-81
2023/08/12 08:38:00;;;;;;;24.83;17.65;;;21.10;99.90;;;;;;5065794;28;20040;-81
2023/08/12 08:40:27;;;;;;;19.02;14.60;;;21.10;99.90;;;;;;5050415;28;20090;-81
2023/08/12 08:42:53;;;;;;;23.30;16.25;;;21.20;99.90;;;;;;5057412;28;20044;-81
2023/08/12 08:45:21;;;;;;;23.52;14.85;;;21.10;99.90;;;;;;5052257;28;20565;-81
2023/08/12 08:47:48;;;;;;;22.02;15.95;;;21.00;99.90;;;;;;5035766;28;20116;-81
2023/08/12 08:50:15;;;;;;;27.05;16.40;;;21.00;99.90;;;;;;5057025;28;20051;-81
2023/08/12 08:52:43;;;;;;;24.73;16.00;;;21.00;99.90;;;;;;5048700;28;20180;-82
2023/08/12 08:55:09;;;;;;;23.70;16.77;;;21.00;99.90;;;;;;5057387;28;20056;-82
2023/08/12 08:57:36;;;;;;;23.52;15.98;;;21.00;99.90;;;;;;5048335;28;20723;-81
2023/08/12 09:00:07;;;;;;;27.90;16.10;;;21.00;99.90;;;;;;5065095;28;20036;-81
2023/08/12 09:02:33;;;;;;;19.15;14.65;;;21.00;99.90;;;;;;5048380;28;20510;-82
2023/08/12 09:04:59;;;;;;;22.58;14.70;;;21.00;99.90;;;;;;5049303;28;20052;-81
2023/08/12 09:07:26;;;;;;;20.65;15.48;;;21.00;99.90;;;;;;5068197;28;20054;-81
2023/08/12 09:09:52;;;;;;;22.20;16.02;;;21.00;99.90;;;;;;5048248;28;20058;-81
2023/08/12 09:12:19;;;;;;;18.20;13.95;;;20.90;99.90;;;;;;5031913;28;20072;-82
2023/08/12 09:14:45;;;;;;;22.38;15.13;;;20.90;99.90;;;;;;5050335;28;20495;-81
2023/08/12 09:17:11;;;;;;;17.88;13.55;;;20.90;99.90;;;;;;5048052;28;20036;-80
2023/08/12 09:19:37;;;;;;;19.70;14.43;;;20.90;99.90;;;;;;5029894;28;20075;-80
2023/08/12 09:22:05;;;;;;;21.27;14.48;;;20.80;99.90;;;;;;5070412;28;20064;-80
2023/08/12 09:24:30;;;;;;;17.13;12.73;;;20.70;99.90;;;;;;5052607;28;20044;-80
2023/08/12 09:26:56;;;;;;;22.88;16.13;;;20.70;99.90;;;;;;5039644;28;20380;-81
2023/08/12 09:29:24;;;;;;;17.55;13.95;;;20.70;99.90;;;;;;5050528;28;20124;-80
2023/08/12 09:31:50;;;;;;;19.67;16.67;;;20.70;99.90;;;;;;5069675;28;20033;-80
2023/08/12 09:34:20;;;;;;;24.48;18.00;;;20.70;99.90;;;;;;5069165;28;20037;-80
2023/08/12 09:36:47;;;;;;;19.10;15.10;;;20.60;99.90;;;;;;5067614;28;20028;-79
2023/08/12 09:39:13;;;;;;;17.38;14.02;;;20.60;99.90;;;;;;5044654;28;20472;-79
2023/08/12 09:41:39;;;;;;;22.88;16.80;;;20.60;99.90;;;;;;5070107;28;20040;-79
2023/08/12 09:44:05;;;;;;;22.95;18.67;;;20.60;99.90;;;;;;5067806;28;20396;-79
2023/08/12 09:46:33;;;;;;;24.80;19.85;;;20.60;99.90;;;;;;5065599;28;20040;-79
2023/08/12 09:48:59;;;;;;;27.02;18.55;;;20.60;99.90;;;;;;5058768;28;20502;-86
2023/08/12 09:51:25;;;;;;;23.50;18.17;;;20.60;99.90;;;;;;5066346;28;20036;-83
2023/08/12 09:53:52;;;;;;;19.70;15.75;;;20.60;99.90;;;;;;5058549;28;20048;-83
2023/08/12 09:56:22;;;;;;;21.15;11.93;;;20.50;99.90;;;;;;5058231;28;20111;-84
2023/08/12 09:58:49;;;;;;;13.75;10.13;;;20.50;99.90;;;;;;5051664;28;20071;-82
2023/08/12 10:01:20;;;;;;;16.60;9.35;;;20.50;99.90;;;;;;5068068;28;20086;-84
2023/08/12 10:03:50;;;;;;;12.18;9.13;;;20.40;99.90;;;;;;5034099;28;20309;-84
2023/08/12 10:06:16;;;;;;;10.38;8.05;;;20.40;99.90;;;;;;5061575;28;20491;-84
2023/08/12 10:08:45;;;;;;;11.23;8.60;;;20.30;99.90;;;;;;5034776;28;20458;-84
2023/08/12 10:11:12;;;;;;;11.50;8.35;;;20.30;99.90;;;;;;5063609;28;20111;-83
2023/08/12 10:13:38;;;;;;;10.90;8.00;;;20.40;99.90;;;;;;5060375;28;20114;-82
2023/08/12 10:16:04;;;;;;;10.98;8.32;;;20.40;99.90;;;;;;5047148;28;20136;-82
2023/08/12 10:18:31;;;;;;;11.43;8.18;;;20.40;99.90;;;;;;5044028;28;20068;-83
2023/08/12 10:21:00;;;;;;;10.35;7.85;;;20.40;99.90;;;;;;5062754;28;20112;-82
2023/08/12 10:23:27;;;;;;;10.82;6.45;;;20.40;99.90;;;;;;5047177;28;20138;-82
2023/08/12 10:25:54;;;;;;;8.80;3.92;;;20.40;99.90;;;;;;5045670;28;20120;-84
2023/08/12 10:28:20;;;;;;;8.82;5.10;;;20.40;99.90;;;;;;5063063;28;20040;-87
2023/08/12 10:30:46;;;;;;;9.45;4.90;;;20.30;99.90;;;;;;5051462;28;20118;-82
2023/08/12 10:33:16;;;;;;;8.82;4.60;;;20.30;99.90;;;;;;5042424;28;20035;-82
2023/08/12 10:35:47;;;;;;;11.48;4.93;;;20.30;99.90;;;;;;5051691;28;20476;-82
2023/08/12 10:38:17;;;;;;;9.20;4.43;;;20.30;99.90;;;;;;5066846;28;20075;-83
2023/08/12 10:40:43;;;;;;;8.20;4.72;;;20.40;99.90;;;;;;5044365;28;20051;-83
2023/08/12 10:43:09;;;;;;;8.63;4.70;;;20.40;99.90;;;;;;5067210;28;20045;-83
2023/08/12 10:46:08;;;;;;;7.00;4.30;;;20.30;99.90;;;;;;5060549;28;20199;-83
2023/08/12 10:48:33;;;;;;;9.52;4.28;;;20.40;99.90;;;;;;5044702;28;20117;-83
2023/08/12 10:51:00;;;;;;;6.78;3.85;;;20.40;99.90;;;;;;5046324;28;20659;-83
2023/08/12 10:53:31;;;;;;;7.65;4.57;;;20.40;99.90;;;;;;5049676;28;20039;-84
2023/08/12 10:55:59;;;;;;;7.65;4.50;;;20.40;99.90;;;;;;5031689;28;20064;-83
2023/08/12 10:58:30;;;;;;;7.88;4.53;;;20.40;99.90;;;;;;5030917;28;20061;-83
2023/08/12 11:00:57;;;;;;;8.50;3.55;;;20.50;99.90;;;;;;5065979;28;20056;-83
2023/08/12 11:03:23;;;;;;;8.68;3.95;;;20.40;99.90;;;;;;5048286;28;20115;-83
2023/08/12 11:05:50;;;;;;;6.70;3.72;;;20.40;99.90;;;;;;5047335;28;20044;-83
2023/08/12 11:08:16;;;;;;;7.07;4.10;;;20.40;99.90;;;;;;5065224;28;20044;-83
2023/08/12 11:10:43;;;;;;;7.10;4.03;;;20.40;99.90;;;;;;5042151;28;20120;-81
2023/08/12 11:13:09;;;;;;;8.45;3.75;;;20.40;99.90;;;;;;5047566;28;20394;-83
2023/08/12 11:15:41;;;;;;;7.60;3.63;;;20.40;99.90;;;;;;5046139;28;20119;-83
2023/08/12 11:18:16;;;;;;;6.18;3.53;;;20.50;99.90;;;;;;5057767;28;20538;-85
2023/08/12 11:20:42;;;;;;;6.28;3.92;;;20.40;99.90;;;;;;5043587;28;20040;-85
2023/08/12 11:23:09;;;;;;;9.73;4.10;;;20.50;99.90;;;;;;5027287;28;20040;-83
2023/08/12 11:25:37;;;;;;;6.50;3.83;;;20.50;99.90;;;;;;5041205;28;20090;-83
2023/08/12 11:28:04;;;;;;;5.70;3.20;;;20.60;99.90;;;;;;5063505;28;20036;-83
2023/08/12 11:30:30;;;;;;;6.07;3.25;;;20.60;99.90;;;;;;5059353;28;20041;-84
2023/08/12 11:32:57;;;;;;;7.72;3.95;;;20.60;99.90;;;;;;5039619;28;20075;-83
2023/08/12 11:35:24;;;;;;;5.43;3.00;;;20.60;99.90;;;;;;5045017;28;20106;-83
2023/08/12 11:37:56;;;;;;;5.68;2.90;;;20.60;99.90;;;;;;5028769;28;20048;-83
2023/08/12 11:40:22;;;;;;;4.32;2.72;;;20.60;99.90;;;;;;5061977;28;20033;-83
2023/08/12 11:42:50;;;;;;;5.97;2.92;;;20.70;99.90;;;;;;5058962;28;20125;-83
2023/08/12 11:45:21;;;;;;;8.85;2.95;;;20.70;99.90;;;;;;5047436;28;20376;-85
2023/08/12 11:47:52;;;;;;;6.65;2.28;;;20.70;99.90;;;;;;5044980;28;20032;-84
2023/08/12 11:50:19;;;;;;;3.50;1.52;;;20.60;99.90;;;;;;5061916;28;20045;-82
2023/08/12 11:52:46;;;;;;;4.30;1.30;;;20.60;99.90;;;;;;5044588;28;22113;-82
2023/08/12 11:55:12;;;;;;;4.85;1.27;;;20.60;99.90;;;;;;5029045;28;20040;-82
2023/08/12 11:57:40;;;;;;;3.05;1.10;;;20.60;99.90;;;;;;5044312;28;20040;-82
2023/08/12 12:00:15;;;;;;;2.38;0.70;;;20.60;99.90;;;;;;5048810;28;20051;-82
2023/08/12 12:02:48;;;;;;;3.22;0.90;;;20.70;99.90;;;;;;5041326;28;20051;-82
2023/08/12 12:05:15;;;;;;;2.67;1.10;;;20.60;99.90;;;;;;5045358;28;20068;-82
2023/08/12 12:07:41;;;;;;;2.10;1.20;;;20.70;99.90;;;;;;5027862;28;20411;-83
2023/08/12 12:10:08;;;;;;;3.38;1.00;;;20.60;99.90;;;;;;5044713;28;20044;-84
2023/08/12 12:12:37;;;;;;;4.88;1.38;;;20.60;99.90;;;;;;5044418;28;20040;-84
2023/08/12 12:15:04;;;;;;;3.67;1.52;;;20.50;99.90;;;;;;5044817;28;20048;-83
2023/08/12 12:17:31;;;;;;;3.35;1.42;;;20.50;99.90;;;;;;5024774;28;20090;-82
2023/08/12 12:19:58;;;;;;;3.17;1.48;;;20.50;99.90;;;;;;5060182;28;20051;-83
2023/08/12 12:22:34;;;;;;;5.05;2.05;;;20.50;99.90;;;;;;5058530;28;20041;-83
2023/08/12 12:25:05;;;;;;;5.05;2.10;;;20.40;99.90;;;;;;5044882;28;20056;-83
2023/08/12 12:27:31;;;;;;;5.47;2.47;;;20.40;99.90;;;;;;5060400;28;20045;-84
2023/08/12 12:29:56;;;;;;;4.93;2.15;;;20.30;99.90;;;;;;5028491;28;20066;-83
2023/08/12 12:32:22;;;;;;;5.05;2.15;;;20.30;99.90;;;;;;5066922;28;20043;-83